Huvudsida
METAR-TAF:

METAR-TAF

Flygplatser :

Neapel, Italien

latitud: 40-51N, longitud: 014-18E, höjd: 88 m

Aktuellt väderrapport

Denna rapport gjordes för 17 minuter sedan, klockan 22:50 UTC
Vind 4 kt från sydväst
Temperatur 13°C
Fuktighet 67%
Tryck 1012 hPa
Sikt 10 km eller mer
Brutna moln på en höjd av 4000 ft
lätt regn

METAR: LIRN 172250Z 23004KT 9999 -RA BKN040 13/07 Q1012 NOSIG

Tid: 00:07 (23:07 UTC)

Väderprognos

Denna rapport gjordes för 6 timmar och 7 minuter sedan, klockan 17:00 UTC
Prognos gäller från 17 kl. 18 UTC till 18 kl. 18 UTC
Vind 10 kt från väst/nordväst
Sikt 10 km eller mer
Spridda moln på en höjd av 3000 ft
Blir
från 18 kl. 06 UTC till 18 kl. 08 UTC
Vind 10 kt från syd/sydväst
Temporärt
från 18 kl. 03 UTC till 18 kl. 09 UTC
Sikt: 3000 m
regnskurar

TAF: LIRN 171700Z 1718/1818 29010KT 9999 SCT030 BECMG 1806/1808 20010KT TEMPO 1803/1809 3000 SHRA

Aktuella väderrapporter och prognoser från 4000 flygplatser (METAR- och TAF-rapporter).

De tillgängliga stationerna syns som gula och röda prickar på kartan.

För musen över prickarna för att se namnen på stationerna.

Klicka sedan för att få väderrapporter och prognoser.

För att ändra kartan: Klicka på de gröna knapparna med ett svart kors på för att zooma in; den gröna knappen med ett streck på för att zooma ut; eller på de gröna pilarna för angränsande kartor.


METAR-TAF: